sensor_id;sensor_type;location;lat;lon;timestamp;P1;durP1;ratioP1;P2;durP2;ratioP2
54145;SDS011;65909;49.422;7.738;2023-01-06T00:01:10;16.55;;;4.40;;
54145;SDS011;65909;49.422;7.738;2023-01-06T00:03:37;10.40;;;4.53;;
54145;SDS011;65909;49.422;7.738;2023-01-06T00:06:04;9.35;;;5.63;;
54145;SDS011;65909;49.422;7.738;2023-01-06T00:08:32;8.52;;;4.43;;
54145;SDS011;65909;49.422;7.738;2023-01-06T00:10:57;11.88;;;4.85;;
54145;SDS011;65909;49.422;7.738;2023-01-06T00:13:23;9.00;;;5.80;;
54145;SDS011;65909;49.422;7.738;2023-01-06T00:15:51;10.05;;;4.75;;
54145;SDS011;65909;49.422;7.738;2023-01-06T00:18:16;17.48;;;5.03;;
54145;SDS011;65909;49.422;7.738;2023-01-06T00:20:42;10.88;;;4.78;;
54145;SDS011;65909;49.422;7.738;2023-01-06T00:23:08;9.23;;;5.55;;
54145;SDS011;65909;49.422;7.738;2023-01-06T00:25:33;8.38;;;4.95;;
54145;SDS011;65909;49.422;7.738;2023-01-06T00:27:58;9.35;;;4.03;;
54145;SDS011;65909;49.422;7.738;2023-01-06T00:30:24;11.25;;;5.35;;
54145;SDS011;65909;49.422;7.738;2023-01-06T00:32:49;14.07;;;5.05;;
54145;SDS011;65909;49.422;7.738;2023-01-06T00:35:15;14.95;;;5.00;;
54145;SDS011;65909;49.422;7.738;2023-01-06T00:37:40;11.55;;;5.05;;
54145;SDS011;65909;49.422;7.738;2023-01-06T00:40:06;12.75;;;5.53;;
54145;SDS011;65909;49.422;7.738;2023-01-06T00:42:31;10.30;;;5.47;;
54145;SDS011;65909;49.422;7.738;2023-01-06T00:44:57;11.57;;;6.18;;
54145;SDS011;65909;49.422;7.738;2023-01-06T00:47:22;12.18;;;5.22;;
54145;SDS011;65909;49.422;7.738;2023-01-06T00:49:47;18.55;;;6.93;;
54145;SDS011;65909;49.422;7.738;2023-01-06T00:52:13;16.92;;;6.32;;
54145;SDS011;65909;49.422;7.738;2023-01-06T00:54:39;13.20;;;6.10;;
54145;SDS011;65909;49.422;7.738;2023-01-06T00:57:05;9.38;;;5.85;;
54145;SDS011;65909;49.422;7.738;2023-01-06T00:59:31;15.55;;;5.40;;
54145;SDS011;65909;49.422;7.738;2023-01-06T01:01:57;10.20;;;5.43;;
54145;SDS011;65909;49.422;7.738;2023-01-06T01:04:23;15.00;;;6.43;;
54145;SDS011;65909;49.422;7.738;2023-01-06T01:06:50;10.80;;;6.57;;
54145;SDS011;65909;49.422;7.738;2023-01-06T01:09:18;10.18;;;5.70;;
54145;SDS011;65909;49.422;7.738;2023-01-06T01:11:48;12.68;;;5.75;;
54145;SDS011;65909;49.422;7.738;2023-01-06T01:14:32;9.48;;;5.43;;
54145;SDS011;65909;49.422;7.738;2023-01-06T01:16:58;12.32;;;6.30;;
54145;SDS011;65909;49.422;7.738;2023-01-06T01:19:23;10.43;;;5.68;;
54145;SDS011;65909;49.422;7.738;2023-01-06T01:21:50;12.48;;;6.82;;
54145;SDS011;65909;49.422;7.738;2023-01-06T01:24:16;13.95;;;7.65;;
54145;SDS011;65909;49.422;7.738;2023-01-06T01:26:42;11.60;;;6.82;;
54145;SDS011;65909;49.422;7.738;2023-01-06T01:29:09;11.35;;;7.10;;
54145;SDS011;65909;49.422;7.738;2023-01-06T01:31:36;10.93;;;7.38;;
54145;SDS011;65909;49.422;7.738;2023-01-06T01:34:01;13.80;;;8.23;;
54145;SDS011;65909;49.422;7.738;2023-01-06T01:36:26;12.52;;;8.18;;
54145;SDS011;65909;49.422;7.738;2023-01-06T01:38:52;13.98;;;8.43;;
54145;SDS011;65909;49.422;7.738;2023-01-06T01:41:20;9.30;;;6.43;;
54145;SDS011;65909;49.422;7.738;2023-01-06T01:43:59;10.93;;;7.80;;
54145;SDS011;65909;49.422;7.738;2023-01-06T01:46:30;9.52;;;7.32;;
54145;SDS011;65909;49.422;7.738;2023-01-06T01:49:10;12.75;;;7.93;;
54145;SDS011;65909;49.422;7.738;2023-01-06T01:51:40;13.77;;;7.18;;
54145;SDS011;65909;49.422;7.738;2023-01-06T01:54:09;15.98;;;7.32;;
54145;SDS011;65909;49.422;7.738;2023-01-06T01:56:39;10.35;;;7.10;;
54145;SDS011;65909;49.422;7.738;2023-01-06T01:59:09;11.50;;;6.72;;
54145;SDS011;65909;49.422;7.738;2023-01-06T02:01:42;12.00;;;8.02;;
54145;SDS011;65909;49.422;7.738;2023-01-06T02:04:08;11.65;;;7.40;;
54145;SDS011;65909;49.422;7.738;2023-01-06T02:06:34;15.43;;;7.53;;
54145;SDS011;65909;49.422;7.738;2023-01-06T02:09:04;13.95;;;7.38;;
54145;SDS011;65909;49.422;7.738;2023-01-06T02:11:35;13.27;;;6.65;;
54145;SDS011;65909;49.422;7.738;2023-01-06T02:14:11;15.60;;;8.10;;
54145;SDS011;65909;49.422;7.738;2023-01-06T02:16:52;15.10;;;9.85;;
54145;SDS011;65909;49.422;7.738;2023-01-06T02:22:41;12.93;;;8.00;;
54145;SDS011;65909;49.422;7.738;2023-01-06T02:45:24;11.15;;;7.82;;
54145;SDS011;65909;49.422;7.738;2023-01-06T02:50:45;13.07;;;8.02;;
54145;SDS011;65909;49.422;7.738;2023-01-06T02:53:36;12.93;;;8.60;;
54145;SDS011;65909;49.422;7.738;2023-01-06T02:56:08;16.25;;;9.73;;
54145;SDS011;65909;49.422;7.738;2023-01-06T03:01:24;13.05;;;7.97;;
54145;SDS011;65909;49.422;7.738;2023-01-06T03:03:53;13.20;;;8.75;;
54145;SDS011;65909;49.422;7.738;2023-01-06T03:06:25;14.18;;;8.60;;
54145;SDS011;65909;49.422;7.738;2023-01-06T03:08:54;13.23;;;7.60;;
54145;SDS011;65909;49.422;7.738;2023-01-06T03:11:20;13.95;;;8.00;;
54145;SDS011;65909;49.422;7.738;2023-01-06T03:16:31;15.88;;;9.68;;
54145;SDS011;65909;49.422;7.738;2023-01-06T03:18:57;17.15;;;8.75;;
54145;SDS011;65909;49.422;7.738;2023-01-06T03:21:26;15.77;;;9.90;;
54145;SDS011;65909;49.422;7.738;2023-01-06T03:23:56;13.60;;;9.23;;
54145;SDS011;65909;49.422;7.738;2023-01-06T03:26:22;13.90;;;8.77;;
54145;SDS011;65909;49.422;7.738;2023-01-06T03:28:48;16.63;;;10.32;;
54145;SDS011;65909;49.422;7.738;2023-01-06T03:39:18;21.88;;;11.57;;
54145;SDS011;65909;49.422;7.738;2023-01-06T03:47:51;16.42;;;8.48;;
54145;SDS011;65909;49.422;7.738;2023-01-06T03:50:24;11.38;;;7.70;;
54145;SDS011;65909;49.422;7.738;2023-01-06T03:53:00;13.38;;;8.57;;
54145;SDS011;65909;49.422;7.738;2023-01-06T03:55:35;12.07;;;7.55;;
54145;SDS011;65909;49.422;7.738;2023-01-06T03:58:02;10.88;;;7.95;;
54145;SDS011;65909;49.422;7.738;2023-01-06T04:00:31;13.43;;;7.57;;
54145;SDS011;65909;49.422;7.738;2023-01-06T04:03:01;10.25;;;7.32;;
54145;SDS011;65909;49.422;7.738;2023-01-06T04:05:31;10.68;;;7.30;;
54145;SDS011;65909;49.422;7.738;2023-01-06T04:07:56;11.75;;;7.07;;
54145;SDS011;65909;49.422;7.738;2023-01-06T04:10:22;10.35;;;6.97;;
54145;SDS011;65909;49.422;7.738;2023-01-06T04:12:48;9.05;;;6.10;;
54145;SDS011;65909;49.422;7.738;2023-01-06T04:15:17;8.65;;;5.80;;
54145;SDS011;65909;49.422;7.738;2023-01-06T04:17:45;8.65;;;5.95;;
54145;SDS011;65909;49.422;7.738;2023-01-06T04:20:12;8.70;;;5.90;;
54145;SDS011;65909;49.422;7.738;2023-01-06T04:22:40;7.75;;;5.63;;
54145;SDS011;65909;49.422;7.738;2023-01-06T04:25:05;9.35;;;6.18;;
54145;SDS011;65909;49.422;7.738;2023-01-06T04:27:31;10.98;;;6.28;;
54145;SDS011;65909;49.422;7.738;2023-01-06T04:29:56;8.45;;;5.53;;
54145;SDS011;65909;49.422;7.738;2023-01-06T04:32:22;9.95;;;5.85;;
54145;SDS011;65909;49.422;7.738;2023-01-06T04:34:47;7.47;;;5.40;;
54145;SDS011;65909;49.422;7.738;2023-01-06T04:37:12;8.13;;;5.25;;
54145;SDS011;65909;49.422;7.738;2023-01-06T04:39:38;6.30;;;5.13;;
54145;SDS011;65909;49.422;7.738;2023-01-06T04:42:03;7.15;;;5.55;;
54145;SDS011;65909;49.422;7.738;2023-01-06T04:44:29;9.13;;;6.00;;
54145;SDS011;65909;49.422;7.738;2023-01-06T04:46:54;6.50;;;4.85;;
54145;SDS011;65909;49.422;7.738;2023-01-06T04:49:19;7.38;;;3.90;;
54145;SDS011;65909;49.422;7.738;2023-01-06T04:51:45;6.35;;;4.30;;
54145;SDS011;65909;49.422;7.738;2023-01-06T04:54:10;6.60;;;4.75;;
54145;SDS011;65909;49.422;7.738;2023-01-06T04:56:36;5.68;;;3.40;;
54145;SDS011;65909;49.422;7.738;2023-01-06T04:59:01;7.05;;;4.22;;
54145;SDS011;65909;49.422;7.738;2023-01-06T05:01:27;5.45;;;3.60;;
54145;SDS011;65909;49.422;7.738;2023-01-06T05:03:52;5.70;;;3.75;;
54145;SDS011;65909;49.422;7.738;2023-01-06T05:06:18;5.10;;;3.17;;
54145;SDS011;65909;49.422;7.738;2023-01-06T05:08:44;5.45;;;3.55;;
54145;SDS011;65909;49.422;7.738;2023-01-06T05:11:14;4.10;;;3.47;;
54145;SDS011;65909;49.422;7.738;2023-01-06T05:13:44;4.65;;;3.67;;
54145;SDS011;65909;49.422;7.738;2023-01-06T05:16:11;4.50;;;3.00;;
54145;SDS011;65909;49.422;7.738;2023-01-06T05:18:42;4.32;;;3.22;;
54145;SDS011;65909;49.422;7.738;2023-01-06T05:21:08;6.53;;;3.08;;
54145;SDS011;65909;49.422;7.738;2023-01-06T05:23:33;5.78;;;3.15;;
54145;SDS011;65909;49.422;7.738;2023-01-06T05:26:01;4.18;;;3.40;;
54145;SDS011;65909;49.422;7.738;2023-01-06T05:28:27;5.85;;;3.50;;
54145;SDS011;65909;49.422;7.738;2023-01-06T05:30:59;3.63;;;2.70;;
54145;SDS011;65909;49.422;7.738;2023-01-06T05:33:29;6.30;;;3.42;;
54145;SDS011;65909;49.422;7.738;2023-01-06T05:35:59;6.40;;;3.60;;
54145;SDS011;65909;49.422;7.738;2023-01-06T05:38:25;4.63;;;2.95;;
54145;SDS011;65909;49.422;7.738;2023-01-06T05:40:51;4.97;;;3.42;;
54145;SDS011;65909;49.422;7.738;2023-01-06T05:43:17;4.05;;;3.10;;
54145;SDS011;65909;49.422;7.738;2023-01-06T05:45:42;6.25;;;3.17;;
54145;SDS011;65909;49.422;7.738;2023-01-06T05:48:08;4.85;;;2.88;;
54145;SDS011;65909;49.422;7.738;2023-01-06T05:50:33;6.55;;;2.92;;
54145;SDS011;65909;49.422;7.738;2023-01-06T05:52:58;4.38;;;2.83;;
54145;SDS011;65909;49.422;7.738;2023-01-06T05:55:24;3.58;;;2.72;;
54145;SDS011;65909;49.422;7.738;2023-01-06T05:57:49;3.97;;;2.53;;
54145;SDS011;65909;49.422;7.738;2023-01-06T06:00:14;4.35;;;2.22;;
54145;SDS011;65909;49.422;7.738;2023-01-06T06:02:40;2.40;;;2.00;;
54145;SDS011;65909;49.422;7.738;2023-01-06T06:05:05;2.10;;;1.73;;
54145;SDS011;65909;49.422;7.738;2023-01-06T06:07:31;2.92;;;1.77;;
54145;SDS011;65909;49.422;7.738;2023-01-06T06:09:56;2.75;;;1.73;;
54145;SDS011;65909;49.422;7.738;2023-01-06T06:12:22;3.17;;;1.92;;
54145;SDS011;65909;49.422;7.738;2023-01-06T06:14:47;2.72;;;1.70;;
54145;SDS011;65909;49.422;7.738;2023-01-06T06:17:12;6.88;;;2.20;;
54145;SDS011;65909;49.422;7.738;2023-01-06T06:19:38;3.85;;;1.90;;
54145;SDS011;65909;49.422;7.738;2023-01-06T06:22:03;3.15;;;1.73;;
54145;SDS011;65909;49.422;7.738;2023-01-06T06:24:28;1.48;;;1.38;;
54145;SDS011;65909;49.422;7.738;2023-01-06T06:26:54;2.78;;;1.50;;
54145;SDS011;65909;49.422;7.738;2023-01-06T06:29:19;2.45;;;1.38;;
54145;SDS011;65909;49.422;7.738;2023-01-06T06:31:44;2.50;;;1.45;;
54145;SDS011;65909;49.422;7.738;2023-01-06T06:34:11;2.15;;;1.60;;
54145;SDS011;65909;49.422;7.738;2023-01-06T06:36:37;2.10;;;1.30;;
54145;SDS011;65909;49.422;7.738;2023-01-06T06:39:02;1.75;;;1.10;;
54145;SDS011;65909;49.422;7.738;2023-01-06T06:41:28;2.20;;;1.80;;
54145;SDS011;65909;49.422;7.738;2023-01-06T06:43:53;1.90;;;1.48;;
54145;SDS011;65909;49.422;7.738;2023-01-06T06:46:19;3.17;;;1.40;;
54145;SDS011;65909;49.422;7.738;2023-01-06T06:48:45;1.55;;;1.20;;
54145;SDS011;65909;49.422;7.738;2023-01-06T06:51:11;2.20;;;1.40;;
54145;SDS011;65909;49.422;7.738;2023-01-06T06:53:38;2.83;;;1.35;;
54145;SDS011;65909;49.422;7.738;2023-01-06T06:56:05;1.67;;;1.33;;
54145;SDS011;65909;49.422;7.738;2023-01-06T06:58:32;3.55;;;0.95;;
54145;SDS011;65909;49.422;7.738;2023-01-06T07:00:58;0.98;;;0.93;;
54145;SDS011;65909;49.422;7.738;2023-01-06T07:03:23;2.03;;;1.00;;
54145;SDS011;65909;49.422;7.738;2023-01-06T07:05:49;0.85;;;0.85;;
54145;SDS011;65909;49.422;7.738;2023-01-06T07:08:16;1.75;;;1.02;;
54145;SDS011;65909;49.422;7.738;2023-01-06T07:10:42;2.30;;;0.90;;
54145;SDS011;65909;49.422;7.738;2023-01-06T07:13:07;1.35;;;0.90;;
54145;SDS011;65909;49.422;7.738;2023-01-06T07:15:33;1.45;;;1.08;;
54145;SDS011;65909;49.422;7.738;2023-01-06T07:17:59;1.73;;;0.80;;
54145;SDS011;65909;49.422;7.738;2023-01-06T07:20:25;2.38;;;0.80;;
54145;SDS011;65909;49.422;7.738;2023-01-06T07:22:51;1.00;;;0.90;;
54145;SDS011;65909;49.422;7.738;2023-01-06T07:25:16;1.00;;;0.90;;
54145;SDS011;65909;49.422;7.738;2023-01-06T07:27:41;0.82;;;0.80;;
54145;SDS011;65909;49.422;7.738;2023-01-06T07:30:07;0.93;;;0.82;;
54145;SDS011;65909;49.422;7.738;2023-01-06T07:32:32;1.58;;;0.95;;
54145;SDS011;65909;49.422;7.738;2023-01-06T07:34:58;1.58;;;0.80;;
54145;SDS011;65909;49.422;7.738;2023-01-06T07:37:23;1.00;;;0.68;;
54145;SDS011;65909;49.422;7.738;2023-01-06T07:39:49;3.97;;;1.10;;
54145;SDS011;65909;49.422;7.738;2023-01-06T07:42:14;0.90;;;0.90;;
54145;SDS011;65909;49.422;7.738;2023-01-06T07:44:39;1.00;;;0.90;;
54145;SDS011;65909;49.422;7.738;2023-01-06T07:47:05;0.80;;;0.80;;
54145;SDS011;65909;49.422;7.738;2023-01-06T07:49:30;2.20;;;0.90;;
54145;SDS011;65909;49.422;7.738;2023-01-06T07:51:56;1.48;;;0.90;;
54145;SDS011;65909;49.422;7.738;2023-01-06T07:54:22;1.85;;;0.90;;
54145;SDS011;65909;49.422;7.738;2023-01-06T07:56:47;1.30;;;0.80;;
54145;SDS011;65909;49.422;7.738;2023-01-06T07:59:12;1.98;;;1.00;;
54145;SDS011;65909;49.422;7.738;2023-01-06T08:01:38;2.25;;;0.80;;
54145;SDS011;65909;49.422;7.738;2023-01-06T08:04:03;2.53;;;1.00;;
54145;SDS011;65909;49.422;7.738;2023-01-06T08:06:29;1.02;;;0.85;;
54145;SDS011;65909;49.422;7.738;2023-01-06T08:08:54;2.75;;;0.90;;
54145;SDS011;65909;49.422;7.738;2023-01-06T08:11:20;1.30;;;1.13;;
54145;SDS011;65909;49.422;7.738;2023-01-06T08:13:45;1.63;;;0.90;;
54145;SDS011;65909;49.422;7.738;2023-01-06T08:16:10;1.15;;;0.90;;
54145;SDS011;65909;49.422;7.738;2023-01-06T08:18:36;1.20;;;0.80;;
54145;SDS011;65909;49.422;7.738;2023-01-06T08:21:03;0.73;;;0.70;;
54145;SDS011;65909;49.422;7.738;2023-01-06T08:23:31;1.40;;;1.30;;
54145;SDS011;65909;49.422;7.738;2023-01-06T08:26:03;1.73;;;1.00;;
54145;SDS011;65909;49.422;7.738;2023-01-06T08:28:33;1.35;;;0.80;;
54145;SDS011;65909;49.422;7.738;2023-01-06T08:30:58;2.20;;;0.82;;
54145;SDS011;65909;49.422;7.738;2023-01-06T08:33:24;0.70;;;0.70;;
54145;SDS011;65909;49.422;7.738;2023-01-06T08:36:00;3.22;;;0.82;;
54145;SDS011;65909;49.422;7.738;2023-01-06T08:38:27;3.20;;;0.85;;
54145;SDS011;65909;49.422;7.738;2023-01-06T08:40:54;0.70;;;0.70;;
54145;SDS011;65909;49.422;7.738;2023-01-06T08:43:20;2.25;;;0.88;;
54145;SDS011;65909;49.422;7.738;2023-01-06T08:45:46;1.40;;;0.80;;
54145;SDS011;65909;49.422;7.738;2023-01-06T08:48:12;2.63;;;1.50;;
54145;SDS011;65909;49.422;7.738;2023-01-06T08:50:38;1.17;;;0.80;;
54145;SDS011;65909;49.422;7.738;2023-01-06T08:53:04;2.55;;;1.00;;
54145;SDS011;65909;49.422;7.738;2023-01-06T08:55:29;0.65;;;0.65;;
54145;SDS011;65909;49.422;7.738;2023-01-06T08:57:55;0.77;;;0.60;;
54145;SDS011;65909;49.422;7.738;2023-01-06T09:00:20;1.08;;;0.68;;
54145;SDS011;65909;49.422;7.738;2023-01-06T09:02:48;1.30;;;0.70;;
54145;SDS011;65909;49.422;7.738;2023-01-06T09:05:14;2.65;;;1.00;;
54145;SDS011;65909;49.422;7.738;2023-01-06T09:07:39;1.48;;;0.80;;
54145;SDS011;65909;49.422;7.738;2023-01-06T09:10:04;1.13;;;0.80;;
54145;SDS011;65909;49.422;7.738;2023-01-06T09:12:30;1.80;;;0.88;;
54145;SDS011;65909;49.422;7.738;2023-01-06T09:14:56;1.67;;;0.98;;
54145;SDS011;65909;49.422;7.738;2023-01-06T09:17:21;3.80;;;0.80;;
54145;SDS011;65909;49.422;7.738;2023-01-06T09:19:46;2.58;;;0.88;;
54145;SDS011;65909;49.422;7.738;2023-01-06T09:22:12;1.13;;;0.80;;
54145;SDS011;65909;49.422;7.738;2023-01-06T09:24:37;1.77;;;0.85;;
54145;SDS011;65909;49.422;7.738;2023-01-06T09:27:02;1.00;;;0.73;;
54145;SDS011;65909;49.422;7.738;2023-01-06T09:29:28;1.02;;;0.80;;
54145;SDS011;65909;49.422;7.738;2023-01-06T09:31:53;0.93;;;0.68;;
54145;SDS011;65909;49.422;7.738;2023-01-06T09:34:18;1.45;;;0.90;;
54145;SDS011;65909;49.422;7.738;2023-01-06T09:36:44;1.42;;;0.82;;
54145;SDS011;65909;49.422;7.738;2023-01-06T09:39:09;1.00;;;0.90;;
54145;SDS011;65909;49.422;7.738;2023-01-06T09:44:27;0.70;;;0.70;;
54145;SDS011;65909;49.422;7.738;2023-01-06T09:46:58;1.77;;;0.80;;
54145;SDS011;65909;49.422;7.738;2023-01-06T09:51:54;1.23;;;0.85;;
54145;SDS011;65909;49.422;7.738;2023-01-06T09:54:31;1.15;;;1.05;;
54145;SDS011;65909;49.422;7.738;2023-01-06T09:57:03;2.25;;;1.10;;
54145;SDS011;65909;49.422;7.738;2023-01-06T10:02:00;1.50;;;0.80;;
54145;SDS011;65909;49.422;7.738;2023-01-06T10:04:28;3.92;;;0.93;;
54145;SDS011;65909;49.422;7.738;2023-01-06T10:09:37;1.42;;;0.73;;
54145;SDS011;65909;49.422;7.738;2023-01-06T10:12:31;2.00;;;0.80;;
54145;SDS011;65909;49.422;7.738;2023-01-06T10:20:54;1.95;;;1.13;;
54145;SDS011;65909;49.422;7.738;2023-01-06T10:23:57;1.48;;;0.73;;
54145;SDS011;65909;49.422;7.738;2023-01-06T10:26:43;3.83;;;1.20;;
54145;SDS011;65909;49.422;7.738;2023-01-06T10:29:17;2.40;;;1.00;;
54145;SDS011;65909;49.422;7.738;2023-01-06T10:31:44;3.42;;;0.90;;
54145;SDS011;65909;49.422;7.738;2023-01-06T10:34:21;1.60;;;0.82;;
54145;SDS011;65909;49.422;7.738;2023-01-06T10:39:38;3.00;;;0.90;;
54145;SDS011;65909;49.422;7.738;2023-01-06T10:42:11;0.90;;;0.90;;
54145;SDS011;65909;49.422;7.738;2023-01-06T10:45:09;4.07;;;0.90;;
54145;SDS011;65909;49.422;7.738;2023-01-06T10:47:38;0.82;;;0.70;;
54145;SDS011;65909;49.422;7.738;2023-01-06T10:50:06;1.60;;;0.80;;
54145;SDS011;65909;49.422;7.738;2023-01-06T10:52:35;2.13;;;0.98;;
54145;SDS011;65909;49.422;7.738;2023-01-06T10:55:03;0.80;;;0.80;;
54145;SDS011;65909;49.422;7.738;2023-01-06T10:57:32;2.05;;;0.80;;
54145;SDS011;65909;49.422;7.738;2023-01-06T11:02:40;0.90;;;0.85;;
54145;SDS011;65909;49.422;7.738;2023-01-06T11:05:34;1.33;;;0.80;;
54145;SDS011;65909;49.422;7.738;2023-01-06T11:10:34;1.40;;;0.68;;
54145;SDS011;65909;49.422;7.738;2023-01-06T11:13:01;0.82;;;0.70;;
54145;SDS011;65909;49.422;7.738;2023-01-06T11:15:48;0.60;;;0.60;;
54145;SDS011;65909;49.422;7.738;2023-01-06T11:18:46;3.08;;;0.70;;
54145;SDS011;65909;49.422;7.738;2023-01-06T11:23:35;3.53;;;0.85;;
54145;SDS011;65909;49.422;7.738;2023-01-06T11:26:16;2.72;;;0.65;;
54145;SDS011;65909;49.422;7.738;2023-01-06T11:28:48;1.63;;;0.70;;
54145;SDS011;65909;49.422;7.738;2023-01-06T11:31:18;1.25;;;0.70;;
54145;SDS011;65909;49.422;7.738;2023-01-06T11:33:58;1.42;;;0.60;;
54145;SDS011;65909;49.422;7.738;2023-01-06T11:36:29;2.25;;;0.90;;
54145;SDS011;65909;49.422;7.738;2023-01-06T11:41:32;0.68;;;0.68;;
54145;SDS011;65909;49.422;7.738;2023-01-06T11:44:04;1.17;;;0.77;;
54145;SDS011;65909;49.422;7.738;2023-01-06T11:46:36;1.77;;;0.80;;
54145;SDS011;65909;49.422;7.738;2023-01-06T11:49:16;0.98;;;0.68;;
54145;SDS011;65909;49.422;7.738;2023-01-06T11:51:49;0.80;;;0.60;;
54145;SDS011;65909;49.422;7.738;2023-01-06T11:54:20;1.25;;;0.88;;
54145;SDS011;65909;49.422;7.738;2023-01-06T12:02:47;1.20;;;0.80;;
54145;SDS011;65909;49.422;7.738;2023-01-06T12:10:47;1.63;;;0.60;;
54145;SDS011;65909;49.422;7.738;2023-01-06T12:13:17;0.75;;;0.70;;
54145;SDS011;65909;49.422;7.738;2023-01-06T12:15:43;0.70;;;0.70;;
54145;SDS011;65909;49.422;7.738;2023-01-06T12:18:13;0.60;;;0.60;;
54145;SDS011;65909;49.422;7.738;2023-01-06T12:20:45;0.65;;;0.50;;
54145;SDS011;65909;49.422;7.738;2023-01-06T12:23:24;0.98;;;0.80;;
54145;SDS011;65909;49.422;7.738;2023-01-06T12:25:53;1.27;;;0.70;;
54145;SDS011;65909;49.422;7.738;2023-01-06T12:28:25;1.48;;;0.70;;
54145;SDS011;65909;49.422;7.738;2023-01-06T12:31:05;0.70;;;0.70;;
54145;SDS011;65909;49.422;7.738;2023-01-06T12:33:34;1.00;;;0.75;;
54145;SDS011;65909;49.422;7.738;2023-01-06T12:36:07;0.70;;;0.70;;
54145;SDS011;65909;49.422;7.738;2023-01-06T12:38:44;1.10;;;0.80;;
54145;SDS011;65909;49.422;7.738;2023-01-06T12:41:19;0.93;;;0.80;;
54145;SDS011;65909;49.422;7.738;2023-01-06T12:46:58;0.90;;;0.70;;
54145;SDS011;65909;49.422;7.738;2023-01-06T12:49:34;0.70;;;0.70;;
54145;SDS011;65909;49.422;7.738;2023-01-06T12:52:09;3.38;;;0.70;;
54145;SDS011;65909;49.422;7.738;2023-01-06T12:54:40;1.42;;;0.60;;
54145;SDS011;65909;49.422;7.738;2023-01-06T12:57:18;0.73;;;0.70;;
54145;SDS011;65909;49.422;7.738;2023-01-06T13:05:57;0.93;;;0.70;;
54145;SDS011;65909;49.422;7.738;2023-01-06T13:14:10;1.38;;;0.60;;
54145;SDS011;65909;49.422;7.738;2023-01-06T13:16:54;2.15;;;0.70;;
54145;SDS011;65909;49.422;7.738;2023-01-06T13:22:12;1.48;;;0.80;;
54145;SDS011;65909;49.422;7.738;2023-01-06T13:24:58;1.55;;;0.73;;
54145;SDS011;65909;49.422;7.738;2023-01-06T13:30:29;0.82;;;0.80;;
54145;SDS011;65909;49.422;7.738;2023-01-06T13:33:20;1.60;;;0.90;;
54145;SDS011;65909;49.422;7.738;2023-01-06T13:39:04;2.08;;;1.10;;
54145;SDS011;65909;49.422;7.738;2023-01-06T13:41:35;2.67;;;0.90;;
54145;SDS011;65909;49.422;7.738;2023-01-06T13:44:02;2.53;;;0.95;;
54145;SDS011;65909;49.422;7.738;2023-01-06T13:46:33;1.25;;;1.05;;
54145;SDS011;65909;49.422;7.738;2023-01-06T13:49:00;1.10;;;0.80;;
54145;SDS011;65909;49.422;7.738;2023-01-06T13:51:30;1.33;;;1.10;;
54145;SDS011;65909;49.422;7.738;2023-01-06T13:54:00;1.77;;;0.95;;
54145;SDS011;65909;49.422;7.738;2023-01-06T13:56:35;1.15;;;0.85;;
54145;SDS011;65909;49.422;7.738;2023-01-06T14:01:46;1.42;;;1.10;;
54145;SDS011;65909;49.422;7.738;2023-01-06T14:07:08;3.30;;;1.00;;
54145;SDS011;65909;49.422;7.738;2023-01-06T14:09:35;3.63;;;1.20;;
54145;SDS011;65909;49.422;7.738;2023-01-06T14:12:07;1.08;;;0.98;;
54145;SDS011;65909;49.422;7.738;2023-01-06T14:14:35;1.02;;;0.90;;
54145;SDS011;65909;49.422;7.738;2023-01-06T14:17:02;3.30;;;0.98;;
54145;SDS011;65909;49.422;7.738;2023-01-06T14:19:29;2.60;;;1.00;;
54145;SDS011;65909;49.422;7.738;2023-01-06T14:22:12;2.85;;;1.20;;
54145;SDS011;65909;49.422;7.738;2023-01-06T14:24:47;1.45;;;0.90;;
54145;SDS011;65909;49.422;7.738;2023-01-06T14:27:15;0.98;;;0.95;;
54145;SDS011;65909;49.422;7.738;2023-01-06T14:35:17;2.72;;;1.08;;
54145;SDS011;65909;49.422;7.738;2023-01-06T14:37:51;2.83;;;1.05;;
54145;SDS011;65909;49.422;7.738;2023-01-06T14:40:25;2.45;;;0.95;;
54145;SDS011;65909;49.422;7.738;2023-01-06T14:42:57;1.90;;;1.20;;
54145;SDS011;65909;49.422;7.738;2023-01-06T14:48:08;1.58;;;0.90;;
54145;SDS011;65909;49.422;7.738;2023-01-06T14:50:38;1.25;;;1.02;;
54145;SDS011;65909;49.422;7.738;2023-01-06T14:53:23;1.45;;;1.00;;
54145;SDS011;65909;49.422;7.738;2023-01-06T14:55:48;2.58;;;1.05;;
54145;SDS011;65909;49.422;7.738;2023-01-06T14:58:30;2.58;;;0.93;;
54145;SDS011;65909;49.422;7.738;2023-01-06T15:00:57;2.00;;;1.00;;
54145;SDS011;65909;49.422;7.738;2023-01-06T15:03:24;2.40;;;0.98;;
54145;SDS011;65909;49.422;7.738;2023-01-06T15:06:06;3.25;;;1.08;;
54145;SDS011;65909;49.422;7.738;2023-01-06T15:08:37;1.20;;;0.98;;
54145;SDS011;65909;49.422;7.738;2023-01-06T15:11:15;1.00;;;0.90;;
54145;SDS011;65909;49.422;7.738;2023-01-06T15:13:45;2.22;;;1.15;;
54145;SDS011;65909;49.422;7.738;2023-01-06T15:16:56;1.42;;;0.90;;
54145;SDS011;65909;49.422;7.738;2023-01-06T15:19:06;0.82;;;0.80;;
54145;SDS011;65909;49.422;7.738;2023-01-06T15:21:39;4.60;;;1.10;;
54145;SDS011;65909;49.422;7.738;2023-01-06T15:26:53;1.23;;;1.10;;
54145;SDS011;65909;49.422;7.738;2023-01-06T15:29:22;1.80;;;1.00;;
54145;SDS011;65909;49.422;7.738;2023-01-06T15:31:50;1.20;;;1.15;;
54145;SDS011;65909;49.422;7.738;2023-01-06T15:34:36;1.10;;;0.93;;
54145;SDS011;65909;49.422;7.738;2023-01-06T15:37:05;1.25;;;1.13;;
54145;SDS011;65909;49.422;7.738;2023-01-06T15:39:38;1.58;;;1.17;;
54145;SDS011;65909;49.422;7.738;2023-01-06T15:42:04;1.48;;;1.10;;
54145;SDS011;65909;49.422;7.738;2023-01-06T15:44:32;1.40;;;1.00;;
54145;SDS011;65909;49.422;7.738;2023-01-06T15:47:05;1.55;;;1.05;;
54145;SDS011;65909;49.422;7.738;2023-01-06T15:49:35;1.80;;;1.30;;
54145;SDS011;65909;49.422;7.738;2023-01-06T15:52:06;2.53;;;1.08;;
54145;SDS011;65909;49.422;7.738;2023-01-06T15:54:37;1.40;;;1.30;;
54145;SDS011;65909;49.422;7.738;2023-01-06T15:57:10;1.55;;;1.23;;
54145;SDS011;65909;49.422;7.738;2023-01-06T15:59:37;1.30;;;1.13;;
54145;SDS011;65909;49.422;7.738;2023-01-06T16:02:04;3.40;;;1.05;;
54145;SDS011;65909;49.422;7.738;2023-01-06T16:04:42;1.20;;;1.00;;
54145;SDS011;65909;49.422;7.738;2023-01-06T16:10:03;2.65;;;1.17;;
54145;SDS011;65909;49.422;7.738;2023-01-06T16:13:01;1.90;;;1.13;;
54145;SDS011;65909;49.422;7.738;2023-01-06T16:15:47;3.08;;;1.30;;
54145;SDS011;65909;49.422;7.738;2023-01-06T16:18:15;1.27;;;1.17;;
54145;SDS011;65909;49.422;7.738;2023-01-06T16:20:49;2.30;;;1.33;;
54145;SDS011;65909;49.422;7.738;2023-01-06T16:23:21;2.20;;;1.10;;
54145;SDS011;65909;49.422;7.738;2023-01-06T16:26:00;1.30;;;1.02;;
54145;SDS011;65909;49.422;7.738;2023-01-06T16:28:27;2.72;;;0.95;;
54145;SDS011;65909;49.422;7.738;2023-01-06T16:31:03;1.98;;;1.10;;
54145;SDS011;65909;49.422;7.738;2023-01-06T16:33:35;0.90;;;0.90;;
54145;SDS011;65909;49.422;7.738;2023-01-06T16:36:03;0.85;;;0.85;;
54145;SDS011;65909;49.422;7.738;2023-01-06T16:38:29;1.60;;;1.20;;
54145;SDS011;65909;49.422;7.738;2023-01-06T16:40:54;1.40;;;1.10;;
54145;SDS011;65909;49.422;7.738;2023-01-06T16:43:20;0.93;;;0.90;;
54145;SDS011;65909;49.422;7.738;2023-01-06T16:45:45;1.00;;;0.90;;
54145;SDS011;65909;49.422;7.738;2023-01-06T16:48:15;1.58;;;1.10;;
54145;SDS011;65909;49.422;7.738;2023-01-06T16:50:42;0.93;;;0.90;;
54145;SDS011;65909;49.422;7.738;2023-01-06T16:53:16;1.63;;;1.00;;
54145;SDS011;65909;49.422;7.738;2023-01-06T16:55:44;1.35;;;1.05;;
54145;SDS011;65909;49.422;7.738;2023-01-06T16:58:15;1.95;;;1.05;;
54145;SDS011;65909;49.422;7.738;2023-01-06T17:00:41;1.27;;;1.10;;
54145;SDS011;65909;49.422;7.738;2023-01-06T17:03:13;2.97;;;1.88;;
54145;SDS011;65909;49.422;7.738;2023-01-06T17:05:40;2.60;;;1.35;;
54145;SDS011;65909;49.422;7.738;2023-01-06T17:08:08;2.03;;;1.30;;